sensor_id;sensor_type;location;lat;lon;timestamp;temperature;humidity
51837;DHT22;38941;53.254;6.600;2022-11-15T00:00:20;6.60;99.90
51837;DHT22;38941;53.254;6.600;2022-11-15T00:02:21;8.10;99.90
51837;DHT22;38941;53.254;6.600;2022-11-15T00:04:22;7.90;99.90
51837;DHT22;38941;53.254;6.600;2022-11-15T00:06:23;8.70;99.90
51837;DHT22;38941;53.254;6.600;2022-11-15T00:08:23;8.00;99.90
51837;DHT22;38941;53.254;6.600;2022-11-15T00:10:24;8.50;99.90
51837;DHT22;38941;53.254;6.600;2022-11-15T00:12:27;8.30;99.90
51837;DHT22;38941;53.254;6.600;2022-11-15T00:14:28;7.90;99.90
51837;DHT22;38941;53.254;6.600;2022-11-15T00:16:29;7.90;99.90
51837;DHT22;38941;53.254;6.600;2022-11-15T00:18:30;7.90;99.90
51837;DHT22;38941;53.254;6.600;2022-11-15T00:20:35;7.90;99.90
51837;DHT22;38941;53.254;6.600;2022-11-15T00:22:36;7.80;99.90
51837;DHT22;38941;53.254;6.600;2022-11-15T00:24:37;7.70;99.90
51837;DHT22;38941;53.254;6.600;2022-11-15T00:26:38;7.70;99.90
51837;DHT22;38941;53.254;6.600;2022-11-15T00:28:39;7.60;99.90
51837;DHT22;38941;53.254;6.600;2022-11-15T00:30:40;7.70;99.90
51837;DHT22;38941;53.254;6.600;2022-11-15T00:32:41;7.70;99.90
51837;DHT22;38941;53.254;6.600;2022-11-15T00:34:42;7.50;99.90
51837;DHT22;38941;53.254;6.600;2022-11-15T00:36:43;7.60;99.90
51837;DHT22;38941;53.254;6.600;2022-11-15T00:38:43;6.30;99.90
51837;DHT22;38941;53.254;6.600;2022-11-15T00:40:44;7.50;99.90
51837;DHT22;38941;53.254;6.600;2022-11-15T00:42:45;7.50;99.90
51837;DHT22;38941;53.254;6.600;2022-11-15T00:44:46;7.40;99.90
51837;DHT22;38941;53.254;6.600;2022-11-15T00:46:47;7.40;99.90
51837;DHT22;38941;53.254;6.600;2022-11-15T00:48:48;7.40;99.90
51837;DHT22;38941;53.254;6.600;2022-11-15T00:50:49;7.40;99.90
51837;DHT22;38941;53.254;6.600;2022-11-15T00:52:51;7.30;99.90
51837;DHT22;38941;53.254;6.600;2022-11-15T00:54:52;7.50;99.90
51837;DHT22;38941;53.254;6.600;2022-11-15T00:56:52;7.30;99.90
51837;DHT22;38941;53.254;6.600;2022-11-15T00:58:53;7.50;99.90
51837;DHT22;38941;53.254;6.600;2022-11-15T01:00:54;7.30;99.90
51837;DHT22;38941;53.254;6.600;2022-11-15T01:02:56;7.40;99.90
51837;DHT22;38941;53.254;6.600;2022-11-15T01:04:57;7.40;99.90
51837;DHT22;38941;53.254;6.600;2022-11-15T01:06:57;7.40;99.90
51837;DHT22;38941;53.254;6.600;2022-11-15T01:08:58;7.50;99.90
51837;DHT22;38941;53.254;6.600;2022-11-15T01:11:04;7.50;99.90
51837;DHT22;38941;53.254;6.600;2022-11-15T01:13:05;7.30;99.90
51837;DHT22;38941;53.254;6.600;2022-11-15T01:15:06;7.40;99.90
51837;DHT22;38941;53.254;6.600;2022-11-15T01:17:07;7.50;99.90
51837;DHT22;38941;53.254;6.600;2022-11-15T01:19:08;7.50;99.90
51837;DHT22;38941;53.254;6.600;2022-11-15T01:21:11;7.40;99.90
51837;DHT22;38941;53.254;6.600;2022-11-15T01:23:12;7.40;99.90
51837;DHT22;38941;53.254;6.600;2022-11-15T01:25:14;7.40;99.90
51837;DHT22;38941;53.254;6.600;2022-11-15T01:27:16;7.50;99.90
51837;DHT22;38941;53.254;6.600;2022-11-15T01:29:17;7.50;99.90
51837;DHT22;38941;53.254;6.600;2022-11-15T01:31:19;7.30;99.90
51837;DHT22;38941;53.254;6.600;2022-11-15T01:33:20;7.20;99.90
51837;DHT22;38941;53.254;6.600;2022-11-15T01:35:21;7.30;99.90
51837;DHT22;38941;53.254;6.600;2022-11-15T01:37:22;7.10;99.90
51837;DHT22;38941;53.254;6.600;2022-11-15T01:39:23;7.20;99.90
51837;DHT22;38941;53.254;6.600;2022-11-15T01:41:26;7.20;99.90
51837;DHT22;38941;53.254;6.600;2022-11-15T01:43:32;7.30;99.90
51837;DHT22;38941;53.254;6.600;2022-11-15T01:45:33;7.20;99.90
51837;DHT22;38941;53.254;6.600;2022-11-15T01:47:38;7.20;99.90
51837;DHT22;38941;53.254;6.600;2022-11-15T01:49:52;7.20;99.90
51837;DHT22;38941;53.254;6.600;2022-11-15T01:51:54;7.30;99.90
51837;DHT22;38941;53.254;6.600;2022-11-15T01:53:58;7.20;99.90
51837;DHT22;38941;53.254;6.600;2022-11-15T01:56:05;7.30;99.90
51837;DHT22;38941;53.254;6.600;2022-11-15T01:58:08;7.20;99.90
51837;DHT22;38941;53.254;6.600;2022-11-15T02:00:09;7.20;99.90
51837;DHT22;38941;53.254;6.600;2022-11-15T02:02:11;7.30;99.90
51837;DHT22;38941;53.254;6.600;2022-11-15T02:04:17;7.30;99.90
51837;DHT22;38941;53.254;6.600;2022-11-15T02:06:20;8.30;99.90
51837;DHT22;38941;53.254;6.600;2022-11-15T02:08:21;7.40;99.90
51837;DHT22;38941;53.254;6.600;2022-11-15T02:10:23;7.30;99.90
51837;DHT22;38941;53.254;6.600;2022-11-15T02:12:24;7.40;99.90
51837;DHT22;38941;53.254;6.600;2022-11-15T02:14:26;7.40;99.90
51837;DHT22;38941;53.254;6.600;2022-11-15T02:18:38;7.30;99.90
51837;DHT22;38941;53.254;6.600;2022-11-15T02:32:09;7.40;99.90
51837;DHT22;38941;53.254;6.600;2022-11-15T02:39:38;7.40;99.90
51837;DHT22;38941;53.254;6.600;2022-11-15T02:41:53;7.40;99.90
51837;DHT22;38941;53.254;6.600;2022-11-15T02:46:31;7.40;99.90
51837;DHT22;38941;53.254;6.600;2022-11-15T02:48:48;7.20;99.90
51837;DHT22;38941;53.254;6.600;2022-11-15T02:50:50;7.30;99.90
51837;DHT22;38941;53.254;6.600;2022-11-15T02:52:52;7.40;99.90
51837;DHT22;38941;53.254;6.600;2022-11-15T02:54:58;7.30;99.90
51837;DHT22;38941;53.254;6.600;2022-11-15T02:57:12;7.30;99.90
51837;DHT22;38941;53.254;6.600;2022-11-15T03:08:22;7.40;99.90
51837;DHT22;38941;53.254;6.600;2022-11-15T03:10:26;7.40;99.90
51837;DHT22;38941;53.254;6.600;2022-11-15T03:14:58;7.40;99.90
51837;DHT22;38941;53.254;6.600;2022-11-15T03:17:03;7.40;99.90
51837;DHT22;38941;53.254;6.600;2022-11-15T03:19:15;7.40;99.90
51837;DHT22;38941;53.254;6.600;2022-11-15T03:21:19;7.30;99.90
51837;DHT22;38941;53.254;6.600;2022-11-15T03:23:21;7.40;99.90
51837;DHT22;38941;53.254;6.600;2022-11-15T03:25:25;7.40;99.90
51837;DHT22;38941;53.254;6.600;2022-11-15T03:27:34;7.40;99.90
51837;DHT22;38941;53.254;6.600;2022-11-15T03:29:39;7.40;99.90
51837;DHT22;38941;53.254;6.600;2022-11-15T03:31:45;7.40;99.90
51837;DHT22;38941;53.254;6.600;2022-11-15T03:33:52;7.40;99.90
51837;DHT22;38941;53.254;6.600;2022-11-15T03:35:55;7.50;99.90
51837;DHT22;38941;53.254;6.600;2022-11-15T03:40:06;6.60;99.90
51837;DHT22;38941;53.254;6.600;2022-11-15T03:47:12;7.50;99.90
51837;DHT22;38941;53.254;6.600;2022-11-15T03:49:24;7.50;99.90
51837;DHT22;38941;53.254;6.600;2022-11-15T03:51:26;7.50;99.90
51837;DHT22;38941;53.254;6.600;2022-11-15T03:53:27;7.50;99.90
51837;DHT22;38941;53.254;6.600;2022-11-15T03:55:28;7.50;99.90
51837;DHT22;38941;53.254;6.600;2022-11-15T03:57:32;7.50;99.90
51837;DHT22;38941;53.254;6.600;2022-11-15T03:59:32;7.50;99.90
51837;DHT22;38941;53.254;6.600;2022-11-15T04:01:33;7.50;99.90
51837;DHT22;38941;53.254;6.600;2022-11-15T04:03:34;7.50;99.90
51837;DHT22;38941;53.254;6.600;2022-11-15T04:05:34;7.70;99.90
51837;DHT22;38941;53.254;6.600;2022-11-15T04:07:35;7.60;99.90
51837;DHT22;38941;53.254;6.600;2022-11-15T04:09:36;7.60;99.90
51837;DHT22;38941;53.254;6.600;2022-11-15T04:11:57;7.60;99.90
51837;DHT22;38941;53.254;6.600;2022-11-15T04:13:59;7.60;99.90
51837;DHT22;38941;53.254;6.600;2022-11-15T04:15:59;7.60;99.90
51837;DHT22;38941;53.254;6.600;2022-11-15T04:18:00;7.60;99.90
51837;DHT22;38941;53.254;6.600;2022-11-15T04:20:06;8.00;99.90
51837;DHT22;38941;53.254;6.600;2022-11-15T04:22:26;7.60;99.90
51837;DHT22;38941;53.254;6.600;2022-11-15T04:24:45;7.60;99.90
51837;DHT22;38941;53.254;6.600;2022-11-15T04:26:46;7.60;99.90
51837;DHT22;38941;53.254;6.600;2022-11-15T04:28:47;7.60;99.90
51837;DHT22;38941;53.254;6.600;2022-11-15T04:31:06;7.70;99.90
51837;DHT22;38941;53.254;6.600;2022-11-15T04:33:07;7.70;99.90
51837;DHT22;38941;53.254;6.600;2022-11-15T04:35:09;7.70;99.90
51837;DHT22;38941;53.254;6.600;2022-11-15T04:37:10;7.70;99.90
51837;DHT22;38941;53.254;6.600;2022-11-15T04:39:13;7.70;99.90
51837;DHT22;38941;53.254;6.600;2022-11-15T04:41:14;7.70;99.90
51837;DHT22;38941;53.254;6.600;2022-11-15T04:43:15;7.70;99.90
51837;DHT22;38941;53.254;6.600;2022-11-15T04:45:15;7.70;99.90
51837;DHT22;38941;53.254;6.600;2022-11-15T04:47:16;7.70;99.90
51837;DHT22;38941;53.254;6.600;2022-11-15T04:49:17;7.70;99.90
51837;DHT22;38941;53.254;6.600;2022-11-15T04:51:18;7.80;99.90
51837;DHT22;38941;53.254;6.600;2022-11-15T04:53:19;7.80;99.90
51837;DHT22;38941;53.254;6.600;2022-11-15T04:55:21;7.80;99.90
51837;DHT22;38941;53.254;6.600;2022-11-15T04:57:22;7.80;99.90
51837;DHT22;38941;53.254;6.600;2022-11-15T04:59:25;7.80;99.90
51837;DHT22;38941;53.254;6.600;2022-11-15T05:01:26;7.80;99.90
51837;DHT22;38941;53.254;6.600;2022-11-15T05:03:27;7.80;99.90
51837;DHT22;38941;53.254;6.600;2022-11-15T05:05:48;7.90;99.90
51837;DHT22;38941;53.254;6.600;2022-11-15T05:07:49;7.80;99.90
51837;DHT22;38941;53.254;6.600;2022-11-15T05:09:51;7.90;99.90
51837;DHT22;38941;53.254;6.600;2022-11-15T05:11:52;7.90;99.90
51837;DHT22;38941;53.254;6.600;2022-11-15T05:13:53;7.90;99.90
51837;DHT22;38941;53.254;6.600;2022-11-15T05:15:53;7.90;99.90
51837;DHT22;38941;53.254;6.600;2022-11-15T05:17:58;7.90;99.90
51837;DHT22;38941;53.254;6.600;2022-11-15T05:19:59;8.00;99.90
51837;DHT22;38941;53.254;6.600;2022-11-15T05:22:01;8.00;99.90
51837;DHT22;38941;53.254;6.600;2022-11-15T05:24:02;8.00;99.90
51837;DHT22;38941;53.254;6.600;2022-11-15T05:26:06;8.00;99.90
51837;DHT22;38941;53.254;6.600;2022-11-15T05:28:08;8.00;99.90
51837;DHT22;38941;53.254;6.600;2022-11-15T05:30:09;8.00;99.90
51837;DHT22;38941;53.254;6.600;2022-11-15T05:32:11;8.10;99.90
51837;DHT22;38941;53.254;6.600;2022-11-15T05:34:12;8.10;99.90
51837;DHT22;38941;53.254;6.600;2022-11-15T05:36:59;8.10;99.90
51837;DHT22;38941;53.254;6.600;2022-11-15T05:38:41;8.10;99.90
51837;DHT22;38941;53.254;6.600;2022-11-15T05:40:42;8.10;99.90
51837;DHT22;38941;53.254;6.600;2022-11-15T05:42:45;8.20;99.90
51837;DHT22;38941;53.254;6.600;2022-11-15T05:44:48;8.20;99.90
51837;DHT22;38941;53.254;6.600;2022-11-15T05:46:51;8.20;99.90
51837;DHT22;38941;53.254;6.600;2022-11-15T05:48:54;8.20;99.90
51837;DHT22;38941;53.254;6.600;2022-11-15T05:50:58;8.50;99.90
51837;DHT22;38941;53.254;6.600;2022-11-15T05:52:59;8.20;99.90
51837;DHT22;38941;53.254;6.600;2022-11-15T05:55:02;8.20;99.90
51837;DHT22;38941;53.254;6.600;2022-11-15T05:57:04;8.20;99.90
51837;DHT22;38941;53.254;6.600;2022-11-15T05:59:05;8.30;99.90
51837;DHT22;38941;53.254;6.600;2022-11-15T06:01:09;8.30;99.90
51837;DHT22;38941;53.254;6.600;2022-11-15T06:03:09;8.30;99.90
51837;DHT22;38941;53.254;6.600;2022-11-15T06:05:10;8.30;99.90
51837;DHT22;38941;53.254;6.600;2022-11-15T06:07:11;8.30;99.90
51837;DHT22;38941;53.254;6.600;2022-11-15T06:09:12;8.30;99.90
51837;DHT22;38941;53.254;6.600;2022-11-15T06:11:12;8.30;99.90
51837;DHT22;38941;53.254;6.600;2022-11-15T06:13:13;8.40;99.90
51837;DHT22;38941;53.254;6.600;2022-11-15T06:15:14;8.40;99.90
51837;DHT22;38941;53.254;6.600;2022-11-15T06:17:15;8.30;99.90
51837;DHT22;38941;53.254;6.600;2022-11-15T06:19:16;8.40;99.90
51837;DHT22;38941;53.254;6.600;2022-11-15T06:21:17;8.40;99.90
51837;DHT22;38941;53.254;6.600;2022-11-15T06:23:18;8.40;99.90
51837;DHT22;38941;53.254;6.600;2022-11-15T06:25:19;8.40;99.90
51837;DHT22;38941;53.254;6.600;2022-11-15T06:27:19;8.40;99.90
51837;DHT22;38941;53.254;6.600;2022-11-15T06:29:21;8.40;99.90
51837;DHT22;38941;53.254;6.600;2022-11-15T06:31:22;8.50;99.90
51837;DHT22;38941;53.254;6.600;2022-11-15T06:33:22;8.50;99.90
51837;DHT22;38941;53.254;6.600;2022-11-15T06:35:23;8.50;99.90
51837;DHT22;38941;53.254;6.600;2022-11-15T06:37:24;8.50;99.90
51837;DHT22;38941;53.254;6.600;2022-11-15T06:39:26;8.50;99.90
51837;DHT22;38941;53.254;6.600;2022-11-15T06:41:27;8.60;99.90
51837;DHT22;38941;53.254;6.600;2022-11-15T06:43:28;8.60;99.90
51837;DHT22;38941;53.254;6.600;2022-11-15T06:45:28;8.60;99.90
51837;DHT22;38941;53.254;6.600;2022-11-15T06:47:29;8.60;99.90
51837;DHT22;38941;53.254;6.600;2022-11-15T06:49:30;8.60;99.90
51837;DHT22;38941;53.254;6.600;2022-11-15T06:51:30;8.60;99.90
51837;DHT22;38941;53.254;6.600;2022-11-15T06:53:31;8.60;99.90
51837;DHT22;38941;53.254;6.600;2022-11-15T06:55:32;8.70;99.90
51837;DHT22;38941;53.254;6.600;2022-11-15T06:57:33;8.70;99.90
51837;DHT22;38941;53.254;6.600;2022-11-15T06:59:35;8.70;99.90
51837;DHT22;38941;53.254;6.600;2022-11-15T07:01:35;8.70;99.90
51837;DHT22;38941;53.254;6.600;2022-11-15T07:03:38;8.80;99.90
51837;DHT22;38941;53.254;6.600;2022-11-15T07:05:39;8.80;99.90
51837;DHT22;38941;53.254;6.600;2022-11-15T07:07:39;8.80;99.90
51837;DHT22;38941;53.254;6.600;2022-11-15T07:09:40;8.90;99.90
51837;DHT22;38941;53.254;6.600;2022-11-15T07:11:41;8.90;99.90
51837;DHT22;38941;53.254;6.600;2022-11-15T07:13:42;8.90;99.90
51837;DHT22;38941;53.254;6.600;2022-11-15T07:15:42;9.00;99.90
51837;DHT22;38941;53.254;6.600;2022-11-15T07:17:43;9.10;99.90
51837;DHT22;38941;53.254;6.600;2022-11-15T07:19:44;9.10;99.90
51837;DHT22;38941;53.254;6.600;2022-11-15T07:21:45;9.20;99.90
51837;DHT22;38941;53.254;6.600;2022-11-15T07:23:49;9.20;99.90
51837;DHT22;38941;53.254;6.600;2022-11-15T07:25:49;9.30;99.90
51837;DHT22;38941;53.254;6.600;2022-11-15T07:28:00;9.40;99.90
51837;DHT22;38941;53.254;6.600;2022-11-15T07:30:02;9.40;99.90
51837;DHT22;38941;53.254;6.600;2022-11-15T07:32:03;9.50;99.90
51837;DHT22;38941;53.254;6.600;2022-11-15T07:34:04;9.50;99.90
51837;DHT22;38941;53.254;6.600;2022-11-15T07:36:06;9.50;99.90
51837;DHT22;38941;53.254;6.600;2022-11-15T07:38:07;9.60;99.90
51837;DHT22;38941;53.254;6.600;2022-11-15T07:40:08;9.60;99.90
51837;DHT22;38941;53.254;6.600;2022-11-15T07:42:09;9.60;99.90
51837;DHT22;38941;53.254;6.600;2022-11-15T07:44:33;9.70;99.90
51837;DHT22;38941;53.254;6.600;2022-11-15T07:46:33;9.70;99.90
51837;DHT22;38941;53.254;6.600;2022-11-15T07:48:38;9.70;99.90
51837;DHT22;38941;53.254;6.600;2022-11-15T07:50:41;9.70;99.90
51837;DHT22;38941;53.254;6.600;2022-11-15T07:52:42;9.80;99.90
51837;DHT22;38941;53.254;6.600;2022-11-15T07:54:43;9.80;99.90
51837;DHT22;38941;53.254;6.600;2022-11-15T07:56:44;9.80;99.90
51837;DHT22;38941;53.254;6.600;2022-11-15T07:58:45;9.90;99.90
51837;DHT22;38941;53.254;6.600;2022-11-15T08:00:46;9.90;99.90
51837;DHT22;38941;53.254;6.600;2022-11-15T08:02:47;9.90;99.90
51837;DHT22;38941;53.254;6.600;2022-11-15T08:04:47;9.90;99.90
51837;DHT22;38941;53.254;6.600;2022-11-15T08:06:48;10.00;99.90
51837;DHT22;38941;53.254;6.600;2022-11-15T08:08:49;10.00;99.90
51837;DHT22;38941;53.254;6.600;2022-11-15T08:10:49;10.00;99.90
51837;DHT22;38941;53.254;6.600;2022-11-15T08:13:08;10.10;99.90
51837;DHT22;38941;53.254;6.600;2022-11-15T08:15:10;10.10;99.90
51837;DHT22;38941;53.254;6.600;2022-11-15T08:17:10;10.10;99.90
51837;DHT22;38941;53.254;6.600;2022-11-15T08:19:11;10.10;99.90
51837;DHT22;38941;53.254;6.600;2022-11-15T08:21:16;10.10;99.90
51837;DHT22;38941;53.254;6.600;2022-11-15T08:23:20;10.10;99.90
51837;DHT22;38941;53.254;6.600;2022-11-15T08:25:22;10.20;99.90
51837;DHT22;38941;53.254;6.600;2022-11-15T08:27:23;10.20;99.90
51837;DHT22;38941;53.254;6.600;2022-11-15T08:29:24;10.30;99.90
51837;DHT22;38941;53.254;6.600;2022-11-15T08:31:24;10.30;99.90
51837;DHT22;38941;53.254;6.600;2022-11-15T08:33:26;10.30;99.90
51837;DHT22;38941;53.254;6.600;2022-11-15T08:35:28;10.30;99.90
51837;DHT22;38941;53.254;6.600;2022-11-15T08:37:28;10.40;99.90
51837;DHT22;38941;53.254;6.600;2022-11-15T08:39:29;10.40;99.90
51837;DHT22;38941;53.254;6.600;2022-11-15T08:41:32;10.40;99.90
51837;DHT22;38941;53.254;6.600;2022-11-15T08:43:33;10.50;99.90
51837;DHT22;38941;53.254;6.600;2022-11-15T08:45:35;10.50;99.90
51837;DHT22;38941;53.254;6.600;2022-11-15T08:47:36;10.50;99.90
51837;DHT22;38941;53.254;6.600;2022-11-15T08:49:36;10.60;99.90
51837;DHT22;38941;53.254;6.600;2022-11-15T08:51:37;10.60;99.90
51837;DHT22;38941;53.254;6.600;2022-11-15T08:53:38;10.60;99.90
51837;DHT22;38941;53.254;6.600;2022-11-15T08:55:39;10.60;99.90
51837;DHT22;38941;53.254;6.600;2022-11-15T08:57:41;10.60;99.90
51837;DHT22;38941;53.254;6.600;2022-11-15T08:59:42;10.70;99.90
51837;DHT22;38941;53.254;6.600;2022-11-15T09:01:42;10.70;99.90
51837;DHT22;38941;53.254;6.600;2022-11-15T09:03:44;10.70;99.90
51837;DHT22;38941;53.254;6.600;2022-11-15T09:05:45;10.80;99.90
51837;DHT22;38941;53.254;6.600;2022-11-15T09:07:45;10.80;99.90
51837;DHT22;38941;53.254;6.600;2022-11-15T09:09:47;10.80;99.90
51837;DHT22;38941;53.254;6.600;2022-11-15T09:11:48;10.90;99.90
51837;DHT22;38941;53.254;6.600;2022-11-15T09:13:49;10.90;99.90
51837;DHT22;38941;53.254;6.600;2022-11-15T09:15:50;11.00;99.90
51837;DHT22;38941;53.254;6.600;2022-11-15T09:17:51;11.00;99.90
51837;DHT22;38941;53.254;6.600;2022-11-15T09:19:53;11.10;99.90
51837;DHT22;38941;53.254;6.600;2022-11-15T09:21:53;11.10;99.90
51837;DHT22;38941;53.254;6.600;2022-11-15T09:23:54;11.10;99.90
51837;DHT22;38941;53.254;6.600;2022-11-15T09:26:00;11.20;99.90
51837;DHT22;38941;53.254;6.600;2022-11-15T09:28:06;11.20;99.90
51837;DHT22;38941;53.254;6.600;2022-11-15T09:30:07;11.20;99.90
51837;DHT22;38941;53.254;6.600;2022-11-15T09:32:09;11.20;99.90
51837;DHT22;38941;53.254;6.600;2022-11-15T09:34:11;11.30;99.90
51837;DHT22;38941;53.254;6.600;2022-11-15T09:36:12;11.30;99.90
51837;DHT22;38941;53.254;6.600;2022-11-15T09:38:13;11.30;99.90
51837;DHT22;38941;53.254;6.600;2022-11-15T09:40:15;11.40;99.90
51837;DHT22;38941;53.254;6.600;2022-11-15T09:49:09;11.50;99.90
51837;DHT22;38941;53.254;6.600;2022-11-15T09:53:40;11.50;99.90
51837;DHT22;38941;53.254;6.600;2022-11-15T09:56:00;11.50;99.90
51837;DHT22;38941;53.254;6.600;2022-11-15T09:58:23;11.50;99.90
51837;DHT22;38941;53.254;6.600;2022-11-15T10:00:36;11.50;99.90
51837;DHT22;38941;53.254;6.600;2022-11-15T10:03:10;11.60;99.90
51837;DHT22;38941;53.254;6.600;2022-11-15T10:05:16;11.60;99.90
51837;DHT22;38941;53.254;6.600;2022-11-15T10:10:02;11.60;99.90
51837;DHT22;38941;53.254;6.600;2022-11-15T10:12:06;11.60;99.90
51837;DHT22;38941;53.254;6.600;2022-11-15T10:14:19;11.60;99.90
51837;DHT22;38941;53.254;6.600;2022-11-15T10:19:10;11.60;99.90
51837;DHT22;38941;53.254;6.600;2022-11-15T10:21:21;11.60;99.90
51837;DHT22;38941;53.254;6.600;2022-11-15T10:23:24;11.60;99.90
51837;DHT22;38941;53.254;6.600;2022-11-15T10:25:25;11.60;99.90
51837;DHT22;38941;53.254;6.600;2022-11-15T10:27:26;11.60;99.90
51837;DHT22;38941;53.254;6.600;2022-11-15T10:29:27;11.60;99.90
51837;DHT22;38941;53.254;6.600;2022-11-15T10:31:28;11.70;99.90
51837;DHT22;38941;53.254;6.600;2022-11-15T10:33:31;11.70;99.90
51837;DHT22;38941;53.254;6.600;2022-11-15T10:35:35;11.70;99.90
51837;DHT22;38941;53.254;6.600;2022-11-15T10:37:35;11.70;99.90
51837;DHT22;38941;53.254;6.600;2022-11-15T10:39:36;11.70;99.90
51837;DHT22;38941;53.254;6.600;2022-11-15T10:41:39;11.80;99.90
51837;DHT22;38941;53.254;6.600;2022-11-15T10:43:40;11.80;99.90
51837;DHT22;38941;53.254;6.600;2022-11-15T10:45:41;11.80;99.90
51837;DHT22;38941;53.254;6.600;2022-11-15T10:47:42;11.80;99.90
51837;DHT22;38941;53.254;6.600;2022-11-15T10:50:38;11.80;99.90
51837;DHT22;38941;53.254;6.600;2022-11-15T10:52:20;11.90;99.90
51837;DHT22;38941;53.254;6.600;2022-11-15T10:56:35;11.90;99.90
51837;DHT22;38941;53.254;6.600;2022-11-15T10:58:44;11.90;99.90
51837;DHT22;38941;53.254;6.600;2022-11-15T11:00:46;11.90;99.90
51837;DHT22;38941;53.254;6.600;2022-11-15T11:04:56;11.90;99.90
51837;DHT22;38941;53.254;6.600;2022-11-15T11:07:00;12.00;99.90
51837;DHT22;38941;53.254;6.600;2022-11-15T11:09:04;12.00;99.90
51837;DHT22;38941;53.254;6.600;2022-11-15T11:11:05;12.00;99.90
51837;DHT22;38941;53.254;6.600;2022-11-15T11:13:20;12.00;99.90
51837;DHT22;38941;53.254;6.600;2022-11-15T11:15:25;11.90;99.90
51837;DHT22;38941;53.254;6.600;2022-11-15T11:19:51;11.90;99.90
51837;DHT22;38941;53.254;6.600;2022-11-15T11:22:22;11.90;99.90
51837;DHT22;38941;53.254;6.600;2022-11-15T11:28:48;11.80;99.90
51837;DHT22;38941;53.254;6.600;2022-11-15T11:31:28;11.80;99.90
51837;DHT22;38941;53.254;6.600;2022-11-15T11:34:03;11.80;99.90
51837;DHT22;38941;53.254;6.600;2022-11-15T11:36:22;11.90;99.90
51837;DHT22;38941;53.254;6.600;2022-11-15T11:40:43;11.90;99.90
51837;DHT22;38941;53.254;6.600;2022-11-15T11:47:24;12.00;99.90
51837;DHT22;38941;53.254;6.600;2022-11-15T11:49:34;12.10;99.90
51837;DHT22;38941;53.254;6.600;2022-11-15T11:51:49;12.20;99.90
51837;DHT22;38941;53.254;6.600;2022-11-15T11:53:58;12.20;99.90
51837;DHT22;38941;53.254;6.600;2022-11-15T11:56:28;12.30;99.90
51837;DHT22;38941;53.254;6.600;2022-11-15T11:58:41;12.40;99.90
51837;DHT22;38941;53.254;6.600;2022-11-15T12:00:49;12.60;99.90
51837;DHT22;38941;53.254;6.600;2022-11-15T12:05:35;13.00;99.90
51837;DHT22;38941;53.254;6.600;2022-11-15T12:07:39;13.00;99.90
51837;DHT22;38941;53.254;6.600;2022-11-15T12:15:03;13.20;99.90
51837;DHT22;38941;53.254;6.600;2022-11-15T12:17:04;13.20;99.90
51837;DHT22;38941;53.254;6.600;2022-11-15T12:19:07;13.10;99.90
51837;DHT22;38941;53.254;6.600;2022-11-15T12:21:16;13.10;99.90
51837;DHT22;38941;53.254;6.600;2022-11-15T12:23:38;13.20;99.90
51837;DHT22;38941;53.254;6.600;2022-11-15T12:26:06;13.30;99.90
51837;DHT22;38941;53.254;6.600;2022-11-15T12:28:40;13.30;99.90
51837;DHT22;38941;53.254;6.600;2022-11-15T12:30:55;13.30;99.90
51837;DHT22;38941;53.254;6.600;2022-11-15T12:33:00;13.30;99.90
51837;DHT22;38941;53.254;6.600;2022-11-15T12:35:04;13.40;99.90
51837;DHT22;38941;53.254;6.600;2022-11-15T12:42:41;13.50;99.90
51837;DHT22;38941;53.254;6.600;2022-11-15T12:48:53;13.50;99.90
51837;DHT22;38941;53.254;6.600;2022-11-15T12:50:57;13.50;99.90
51837;DHT22;38941;53.254;6.600;2022-11-15T12:55:31;13.40;99.90
51837;DHT22;38941;53.254;6.600;2022-11-15T12:57:37;13.30;99.90
51837;DHT22;38941;53.254;6.600;2022-11-15T12:59:58;13.20;99.90
51837;DHT22;38941;53.254;6.600;2022-11-15T13:02:11;13.10;99.90
51837;DHT22;38941;53.254;6.600;2022-11-15T13:04:22;13.10;99.90
51837;DHT22;38941;53.254;6.600;2022-11-15T13:06:39;13.00;99.90
51837;DHT22;38941;53.254;6.600;2022-11-15T13:08:43;13.10;99.90
51837;DHT22;38941;53.254;6.600;2022-11-15T13:10:47;13.10;99.90
51837;DHT22;38941;53.254;6.600;2022-11-15T13:12:50;13.10;99.90
51837;DHT22;38941;53.254;6.600;2022-11-15T13:14:58;13.10;99.90
51837;DHT22;38941;53.254;6.600;2022-11-15T13:17:00;13.30;99.90
51837;DHT22;38941;53.254;6.600;2022-11-15T13:19:02;13.50;99.90
51837;DHT22;38941;53.254;6.600;2022-11-15T13:21:16;13.70;99.90
51837;DHT22;38941;53.254;6.600;2022-11-15T13:23:38;14.00;99.90
51837;DHT22;38941;53.254;6.600;2022-11-15T13:27:54;14.00;99.90
51837;DHT22;38941;53.254;6.600;2022-11-15T13:29:57;14.10;99.90
51837;DHT22;38941;53.254;6.600;2022-11-15T13:31:58;14.20;99.90
51837;DHT22;38941;53.254;6.600;2022-11-15T13:34:24;14.30;99.90
51837;DHT22;38941;53.254;6.600;2022-11-15T13:36:28;14.30;99.90
51837;DHT22;38941;53.254;6.600;2022-11-15T13:38:37;14.40;99.90
51837;DHT22;38941;53.254;6.600;2022-11-15T13:40:38;14.40;99.90
51837;DHT22;38941;53.254;6.600;2022-11-15T13:42:39;14.40;99.90
51837;DHT22;38941;53.254;6.600;2022-11-15T13:44:40;14.50;99.90
51837;DHT22;38941;53.254;6.600;2022-11-15T13:47:07;14.50;99.90
51837;DHT22;38941;53.254;6.600;2022-11-15T13:49:12;14.50;99.90
51837;DHT22;38941;53.254;6.600;2022-11-15T13:53:31;14.60;99.90
51837;DHT22;38941;53.254;6.600;2022-11-15T13:55:33;14.60;99.90
51837;DHT22;38941;53.254;6.600;2022-11-15T13:59:54;14.60;99.90
51837;DHT22;38941;53.254;6.600;2022-11-15T14:01:59;14.70;99.90
51837;DHT22;38941;53.254;6.600;2022-11-15T14:04:01;14.80;99.90
51837;DHT22;38941;53.254;6.600;2022-11-15T14:06:12;14.90;99.90
51837;DHT22;38941;53.254;6.600;2022-11-15T14:08:22;15.10;99.90
51837;DHT22;38941;53.254;6.600;2022-11-15T14:10:30;15.20;99.90
51837;DHT22;38941;53.254;6.600;2022-11-15T14:12:33;15.30;99.90
51837;DHT22;38941;53.254;6.600;2022-11-15T14:14:45;15.20;99.90
51837;DHT22;38941;53.254;6.600;2022-11-15T14:16:48;15.30;99.90
51837;DHT22;38941;53.254;6.600;2022-11-15T14:18:52;15.20;99.90
51837;DHT22;38941;53.254;6.600;2022-11-15T14:21:06;15.10;99.90
51837;DHT22;38941;53.254;6.600;2022-11-15T14:23:26;15.00;99.90
51837;DHT22;38941;53.254;6.600;2022-11-15T14:25:36;14.70;99.90
51837;DHT22;38941;53.254;6.600;2022-11-15T14:27:36;14.50;99.90
51837;DHT22;38941;53.254;6.600;2022-11-15T14:29:37;14.30;99.90
51837;DHT22;38941;53.254;6.600;2022-11-15T14:31:39;14.10;99.90
51837;DHT22;38941;53.254;6.600;2022-11-15T14:33:41;13.90;99.90
51837;DHT22;38941;53.254;6.600;2022-11-15T14:35:42;13.70;99.90
51837;DHT22;38941;53.254;6.600;2022-11-15T14:37:43;13.60;99.90
51837;DHT22;38941;53.254;6.600;2022-11-15T14:39:43;13.50;99.90
51837;DHT22;38941;53.254;6.600;2022-11-15T14:41:44;13.40;99.90
51837;DHT22;38941;53.254;6.600;2022-11-15T14:43:45;13.30;99.90
51837;DHT22;38941;53.254;6.600;2022-11-15T14:45:47;13.20;99.90
51837;DHT22;38941;53.254;6.600;2022-11-15T14:47:48;13.10;99.90
51837;DHT22;38941;53.254;6.600;2022-11-15T14:49:49;13.00;99.90
51837;DHT22;38941;53.254;6.600;2022-11-15T14:51:51;12.90;99.90